Current Conditions
Partly Cloudy
Conditions



Pressure
30.12 (inHG) - 1019.92 (mb)
Visibility

6.2 (miles) - 10.0 (km)
Temperature
68  °F
Temperature
61  °F
Dewpoint
78  %
 Humidity
Wind Speed
9  mph
8  kts
14  km/h
4.0  m/s
Wind Direction
N
45°
E
90°
135°
S
180°
225°
W
270°
315°
 260°

Due West
Airport Data
LTBA
İstanbul Atatürk Airport
Metar :LTBA 250620Z 26008KT 9999 FEW017 BKN080 20/16 Q1020 NOSIG RMK RWY23 26009KT
Sat 25th September 01:20 am
Raw Metar Info
Raw METAR is the most common format in the world for the transmission of observational weather data. It is highly standardized through the International Civil Aviation Organization (ICAO), which allows it to be understood throughout most of the world.
API Info
Data Provided by
https://www.checkwx.com/weather/LTBA

Aviation Weather providing METAR, TAF, AIRMET, SIGMET and OUTLOOK Weather Reports
© Info
CSS/SVG/PHP scripts were developed by weather34.com for use in the weather34 template © 2015-2021

Guide Info provided by Metar-Wikipedia